createdAt,value
2023-10-24T00:01:17.574Z,79.17
2023-10-24T00:03:48.330Z,80.83
2023-10-24T00:06:19.445Z,79.45
2023-10-24T00:08:50.841Z,79.44
2023-10-24T00:11:21.541Z,78.46
2023-10-24T00:13:56.860Z,78.04
2023-10-24T00:16:27.710Z,77.81
2023-10-24T00:18:58.164Z,78.19
2023-10-24T00:21:28.954Z,78.21
2023-10-24T00:23:59.687Z,79.02
2023-10-24T00:26:30.367Z,78.26
2023-10-24T00:29:03.739Z,78.28
2023-10-24T00:31:34.496Z,78.20
2023-10-24T00:34:05.220Z,77.94
2023-10-24T00:36:37.326Z,78.02
2023-10-24T00:39:09.748Z,78.03
2023-10-24T00:41:40.442Z,77.77
2023-10-24T00:44:14.874Z,77.50
2023-10-24T00:46:46.696Z,77.17
2023-10-24T00:49:17.711Z,77.16
2023-10-24T00:51:48.467Z,76.82
2023-10-24T00:54:19.179Z,76.59
2023-10-24T00:56:51.440Z,76.51
2023-10-24T00:59:27.651Z,76.81
2023-10-24T01:01:58.851Z,76.83
2023-10-24T01:04:30.012Z,76.77
2023-10-24T01:07:04.063Z,76.98
2023-10-24T01:09:34.804Z,76.78
2023-10-24T01:12:06.436Z,76.62
2023-10-24T01:14:40.318Z,77.13
2023-10-24T01:17:14.993Z,76.65
2023-10-24T01:19:45.687Z,76.83
2023-10-24T01:22:19.005Z,76.49
2023-10-24T01:24:51.756Z,77.17
2023-10-24T01:27:24.774Z,77.16
2023-10-24T01:29:55.447Z,77.46
2023-10-24T01:32:34.283Z,77.32
2023-10-24T01:35:05.248Z,77.22
2023-10-24T01:37:39.017Z,76.76
2023-10-24T01:40:12.475Z,76.58
2023-10-24T01:42:43.152Z,76.08
2023-10-24T01:45:16.977Z,75.97
2023-10-24T01:47:47.991Z,75.94
2023-10-24T01:50:18.657Z,75.91
2023-10-24T01:52:54.180Z,75.90
2023-10-24T01:55:25.035Z,76.01
2023-10-24T01:57:55.441Z,76.36
2023-10-24T02:00:26.409Z,76.40
2023-10-24T02:03:00.086Z,76.50
2023-10-24T02:05:31.155Z,76.28
2023-10-24T02:08:05.905Z,76.59
2023-10-24T02:10:37.006Z,77.03
2023-10-24T02:13:07.827Z,76.96
2023-10-24T02:15:40.811Z,77.11
2023-10-24T02:18:11.737Z,77.48
2023-10-24T02:20:42.624Z,77.50
2023-10-24T02:23:15.650Z,77.47
2023-10-24T02:25:48.120Z,77.70
2023-10-24T02:28:19.530Z,78.12
2023-10-24T02:30:52.168Z,77.83
2023-10-24T02:33:23.927Z,78.08
2023-10-24T02:35:56.593Z,77.93
2023-10-24T02:38:29.980Z,77.82
2023-10-24T02:41:00.819Z,77.62
2023-10-24T02:43:31.856Z,77.93
2023-10-24T02:46:07.297Z,77.76
2023-10-24T02:48:38.334Z,77.55
2023-10-24T02:51:09.095Z,77.61
2023-10-24T02:53:42.410Z,77.67
2023-10-24T02:56:13.051Z,78.12
2023-10-24T02:58:44.061Z,77.98
2023-10-24T03:01:15.379Z,77.60
2023-10-24T03:03:45.997Z,76.86
2023-10-24T03:06:19.204Z,77.69
2023-10-24T03:08:52.982Z,78.16
2023-10-24T03:11:28.361Z,77.79
2023-10-24T03:13:59.654Z,77.27
2023-10-24T03:16:31.919Z,77.35
2023-10-24T03:19:03.664Z,77.29
2023-10-24T03:21:34.374Z,77.48
2023-10-24T03:24:09.499Z,77.70
2023-10-24T03:26:40.397Z,77.59
2023-10-24T03:29:10.901Z,77.32
2023-10-24T03:31:41.543Z,77.10
2023-10-24T03:34:12.454Z,76.96
2023-10-24T03:36:42.799Z,77.21
2023-10-24T03:39:16.094Z,77.23
2023-10-24T03:41:46.810Z,76.91
2023-10-24T03:44:17.517Z,76.74
2023-10-24T03:46:48.481Z,76.82
2023-10-24T03:49:19.481Z,76.94
2023-10-24T03:51:50.428Z,76.74
2023-10-24T03:54:23.886Z,76.89
2023-10-24T03:56:54.507Z,76.49
2023-10-24T03:59:25.157Z,76.48
2023-10-24T04:01:55.817Z,76.00
2023-10-24T04:04:26.512Z,75.88
2023-10-24T04:06:57.241Z,76.04
2023-10-24T04:09:38.536Z,75.78
2023-10-24T04:12:10.767Z,76.02
2023-10-24T04:14:41.594Z,76.14
2023-10-24T04:17:12.249Z,76.43
2023-10-24T04:19:42.830Z,76.58
2023-10-24T04:22:13.706Z,76.75
2023-10-24T04:24:47.112Z,76.54
2023-10-24T04:27:18.012Z,76.67
2023-10-24T04:29:48.930Z,76.66
2023-10-24T04:32:19.320Z,76.49
2023-10-24T04:34:52.897Z,76.92
2023-10-24T04:37:23.708Z,77.17
2023-10-24T04:39:57.931Z,77.20
2023-10-24T04:42:28.776Z,76.97
2023-10-24T04:44:59.848Z,76.98
2023-10-24T04:47:30.446Z,76.79
2023-10-24T04:50:01.268Z,76.77
2023-10-24T04:52:32.092Z,76.26
2023-10-24T04:55:06.422Z,76.15
2023-10-24T04:57:36.990Z,75.75
2023-10-24T05:00:12.614Z,75.41
2023-10-24T05:02:43.628Z,75.75
2023-10-24T05:05:14.839Z,74.94
2023-10-24T05:07:45.824Z,74.77
2023-10-24T05:10:19.046Z,74.66
2023-10-24T05:12:49.762Z,74.27
2023-10-24T05:15:20.537Z,74.39
2023-10-24T05:17:51.515Z,74.42
2023-10-24T05:20:22.383Z,73.80
2023-10-24T05:22:54.072Z,73.57
2023-10-24T05:25:27.485Z,73.55
2023-10-24T05:27:58.082Z,74.37
2023-10-24T05:30:28.876Z,74.61
2023-10-24T05:32:59.944Z,74.90
2023-10-24T05:35:30.723Z,75.51
2023-10-24T05:38:01.472Z,75.43
2023-10-24T05:40:34.751Z,75.48
2023-10-24T05:43:06.189Z,75.33
2023-10-24T05:45:37.700Z,75.01
2023-10-24T05:48:09.206Z,74.92
2023-10-24T05:50:40.489Z,74.87
2023-10-24T05:53:11.107Z,74.06
2023-10-24T05:55:44.881Z,73.59
2023-10-24T05:58:20.587Z,73.70
2023-10-24T06:00:51.418Z,72.55
2023-10-24T06:03:23.037Z,72.43
2023-10-24T06:05:54.312Z,72.33
2023-10-24T06:08:25.135Z,71.59
2023-10-24T06:11:03.780Z,71.41
2023-10-24T06:13:35.766Z,71.24
2023-10-24T06:16:13.431Z,71.32
2023-10-24T06:18:44.765Z,71.22
2023-10-24T06:21:16.768Z,71.25
2023-10-24T06:23:47.486Z,71.22
2023-10-24T06:26:22.029Z,70.50
2023-10-24T06:28:52.941Z,70.79
2023-10-24T06:31:23.888Z,70.67
2023-10-24T06:33:54.558Z,70.52
2023-10-24T06:36:25.365Z,70.65
2023-10-24T06:38:56.127Z,70.68
2023-10-24T06:41:29.434Z,70.24
2023-10-24T06:44:00.180Z,69.94
2023-10-24T06:46:30.878Z,69.58
2023-10-24T06:49:01.539Z,69.13
2023-10-24T06:51:33.138Z,69.43
2023-10-24T06:54:04.018Z,69.29
2023-10-24T06:56:37.949Z,69.25
2023-10-24T06:59:08.845Z,69.15
2023-10-24T07:01:39.569Z,69.22
2023-10-24T07:04:10.876Z,68.94
2023-10-24T07:06:41.563Z,68.72
2023-10-24T07:09:12.122Z,68.41
2023-10-24T07:11:45.301Z,68.35
2023-10-24T07:14:16.126Z,68.26
2023-10-24T07:16:46.767Z,68.06
2023-10-24T07:19:17.997Z,67.95
2023-10-24T07:21:49.288Z,67.77
2023-10-24T07:24:20.106Z,67.27
2023-10-24T07:26:53.398Z,67.38
2023-10-24T07:29:24.608Z,67.57
2023-10-24T07:31:55.355Z,67.30
2023-10-24T07:34:26.835Z,66.39
2023-10-24T07:36:57.746Z,66.25
2023-10-24T07:39:28.164Z,65.35
2023-10-24T07:42:01.382Z,65.01
2023-10-24T07:44:31.940Z,64.62
2023-10-24T07:47:02.762Z,63.68
2023-10-24T07:49:33.118Z,63.60
2023-10-24T07:52:05.504Z,63.69
2023-10-24T07:54:36.203Z,63.39
2023-10-24T07:57:11.259Z,63.26
2023-10-24T07:59:41.968Z,63.34
2023-10-24T08:02:12.318Z,63.22
2023-10-24T08:04:43.159Z,63.76
2023-10-24T08:07:14.444Z,63.94
2023-10-24T08:09:45.032Z,64.51
2023-10-24T08:12:18.565Z,64.33
2023-10-24T08:14:49.286Z,65.19
2023-10-24T08:17:20.162Z,65.58
2023-10-24T08:19:53.815Z,66.30
2023-10-24T08:22:24.668Z,66.41
2023-10-24T08:24:55.424Z,66.13
2023-10-24T08:27:28.681Z,65.54
2023-10-24T08:29:59.344Z,65.41
2023-10-24T08:32:30.829Z,64.79
2023-10-24T08:35:01.610Z,64.72
2023-10-24T08:37:32.179Z,65.05
2023-10-24T08:40:02.867Z,64.48
2023-10-24T08:42:38.043Z,64.49
2023-10-24T08:45:11.690Z,64.42
2023-10-24T08:47:42.956Z,65.10
2023-10-24T08:50:14.303Z,64.22
2023-10-24T08:52:45.028Z,64.01
2023-10-24T08:55:15.764Z,63.73
2023-10-24T08:57:51.195Z,63.27
2023-10-24T09:00:22.031Z,64.10
2023-10-24T09:02:52.371Z,63.84
2023-10-24T09:05:23.713Z,63.83
2023-10-24T09:07:54.437Z,63.29
2023-10-24T09:10:25.086Z,63.56
2023-10-24T09:12:58.791Z,63.86
2023-10-24T09:15:29.832Z,63.44
2023-10-24T09:18:00.591Z,63.67
2023-10-24T09:20:34.001Z,63.19
2023-10-24T09:23:09.082Z,63.23
2023-10-24T09:25:41.120Z,62.78
2023-10-24T09:28:24.893Z,62.90
2023-10-24T09:30:55.639Z,62.74
2023-10-24T09:33:28.546Z,62.39
2023-10-24T09:36:13.411Z,62.64
2023-10-24T09:38:47.352Z,62.84
2023-10-24T09:41:18.801Z,62.85
2023-10-24T09:43:53.162Z,62.90
2023-10-24T09:46:25.465Z,63.69
2023-10-24T09:48:58.765Z,64.04
2023-10-24T09:51:30.026Z,64.40
2023-10-24T09:54:01.057Z,64.10
2023-10-24T09:56:32.396Z,64.54
2023-10-24T09:59:07.243Z,64.78
2023-10-24T10:01:39.044Z,64.74
2023-10-24T10:04:11.308Z,64.69
2023-10-24T10:06:58.362Z,64.85
2023-10-24T10:09:30.159Z,64.63
2023-10-24T10:12:02.549Z,64.44
2023-10-24T10:14:53.318Z,64.83
2023-10-24T10:17:37.601Z,64.73
2023-10-24T10:20:39.777Z,64.84
2023-10-24T10:23:30.341Z,64.35
2023-10-24T10:26:08.525Z,65.00
2023-10-24T10:29:11.976Z,64.93
2023-10-24T10:32:39.713Z,65.13
2023-10-24T10:35:00.698Z,65.37
2023-10-24T10:37:37.710Z,65.81
2023-10-24T10:40:29.463Z,66.00
2023-10-24T10:43:03.824Z,66.48
2023-10-24T10:45:36.039Z,66.43
2023-10-24T10:48:10.080Z,65.39
2023-10-24T10:50:40.860Z,65.87
2023-10-24T10:53:24.943Z,66.59
2023-10-24T10:56:22.076Z,67.13
2023-10-24T10:59:23.425Z,67.05
2023-10-24T11:02:22.719Z,66.83
2023-10-24T11:04:56.777Z,66.84
2023-10-24T11:07:57.995Z,67.60
2023-10-24T11:10:29.000Z,67.23
2023-10-24T11:12:59.893Z,67.58
2023-10-24T11:15:32.170Z,68.01
2023-10-24T11:18:03.501Z,67.78
2023-10-24T11:20:39.353Z,68.44
2023-10-24T11:23:12.588Z,68.46
2023-10-24T11:25:43.742Z,68.38
2023-10-24T11:28:14.936Z,68.87
2023-10-24T11:30:45.913Z,68.60
2023-10-24T11:33:16.722Z,68.75
2023-10-24T11:35:49.721Z,69.23
2023-10-24T11:38:20.888Z,69.89
2023-10-24T11:40:51.687Z,70.05
2023-10-24T11:43:22.073Z,70.37
2023-10-24T11:45:52.741Z,70.41
2023-10-24T11:48:23.236Z,70.53
2023-10-24T11:50:56.773Z,70.66
2023-10-24T11:53:28.410Z,70.32
2023-10-24T11:55:59.835Z,70.14
2023-10-24T11:58:39.959Z,70.37
2023-10-24T12:01:10.689Z,70.17
2023-10-24T12:03:50.461Z,70.46
2023-10-24T12:06:24.149Z,70.32
2023-10-24T12:08:54.826Z,70.71
2023-10-24T12:11:26.846Z,70.97
2023-10-24T12:13:57.720Z,71.47
2023-10-24T12:16:47.142Z,70.46
2023-10-24T12:19:22.803Z,70.33
2023-10-24T12:21:56.315Z,70.20
2023-10-24T12:24:27.434Z,71.07
2023-10-24T12:26:58.545Z,71.04
2023-10-24T12:29:29.380Z,71.95
2023-10-24T12:31:59.794Z,72.21
2023-10-24T12:34:30.912Z,71.41
2023-10-24T12:37:04.970Z,71.14
2023-10-24T12:39:35.688Z,71.48
2023-10-24T12:42:06.203Z,70.97
2023-10-24T12:44:37.093Z,70.80
2023-10-24T12:47:07.752Z,71.16
2023-10-24T12:49:38.504Z,71.21
2023-10-24T12:52:12.471Z,70.63
2023-10-24T12:54:43.193Z,70.90
2023-10-24T12:57:13.926Z,71.42
2023-10-24T12:59:44.337Z,72.50
2023-10-24T13:02:15.241Z,72.57
2023-10-24T13:04:46.340Z,73.07
2023-10-24T13:07:19.640Z,73.10
2023-10-24T13:09:50.434Z,73.23
2023-10-24T13:12:21.381Z,73.87
2023-10-24T13:14:52.287Z,73.59
2023-10-24T13:17:23.333Z,74.32
2023-10-24T13:19:54.820Z,75.08
2023-10-24T13:22:28.462Z,75.52
2023-10-24T13:24:59.356Z,75.18
2023-10-24T13:27:29.709Z,75.85
2023-10-24T13:30:03.230Z,76.44
2023-10-24T13:32:35.958Z,77.62
2023-10-24T13:37:43.331Z,79.24
2023-10-24T13:40:15.170Z,79.80
2023-10-24T13:42:45.935Z,79.84
2023-10-24T13:45:16.714Z,79.34
2023-10-24T13:47:47.030Z,78.95
2023-10-24T13:50:17.939Z,78.49
2023-10-24T13:52:52.665Z,78.80
2023-10-24T13:55:23.445Z,79.68
2023-10-24T13:57:54.160Z,79.73
2023-10-24T14:00:25.319Z,80.64
2023-10-24T14:02:56.181Z,80.61
2023-10-24T14:05:27.031Z,80.86
2023-10-24T14:08:00.176Z,82.05
2023-10-24T14:10:30.777Z,82.43
2023-10-24T14:13:01.448Z,83.05
2023-10-24T14:15:31.924Z,84.17
2023-10-24T14:18:02.836Z,84.45
2023-10-24T14:20:34.841Z,85.78
2023-10-24T14:23:08.226Z,86.85
2023-10-24T14:25:39.277Z,86.89
2023-10-24T14:28:09.965Z,89.02
2023-10-24T14:30:40.861Z,89.98
2023-10-24T14:33:11.549Z,91.38
2023-10-24T14:35:42.587Z,91.61
2023-10-24T14:38:15.948Z,91.11
2023-10-24T14:40:46.689Z,91.50
2023-10-24T14:43:17.244Z,92.76
2023-10-24T14:45:47.931Z,93.73
2023-10-24T14:48:18.676Z,92.68
2023-10-24T14:50:49.402Z,92.63
2023-10-24T14:53:22.694Z,93.46
2023-10-24T14:55:53.374Z,94.15
2023-10-24T14:58:24.485Z,95.36
2023-10-24T15:00:57.178Z,95.44
2023-10-24T15:03:28.100Z,95.64
2023-10-24T15:05:58.623Z,96.72
2023-10-24T15:08:32.177Z,96.90
2023-10-24T15:11:03.103Z,98.25
2023-10-24T15:13:33.932Z,100.00
2023-10-24T15:16:04.343Z,100.00
2023-10-24T15:18:37.721Z,100.00
2023-10-24T15:21:08.996Z,100.00
2023-10-24T15:23:44.319Z,100.00
2023-10-24T15:26:15.101Z,100.00
2023-10-24T15:28:45.467Z,100.00
2023-10-24T15:31:16.120Z,100.00
2023-10-24T15:33:46.831Z,100.00
2023-10-24T15:36:17.554Z,100.00
2023-10-24T15:38:50.879Z,100.00
2023-10-24T15:41:21.573Z,100.00
2023-10-24T15:44:06.512Z,100.00
2023-10-24T15:46:40.808Z,100.00
2023-10-24T15:49:11.497Z,100.00
2023-10-24T15:51:45.609Z,100.00
2023-10-24T15:54:18.997Z,100.00
2023-10-24T15:56:49.698Z,100.00
2023-10-24T15:59:20.721Z,100.00
2023-10-24T16:01:51.616Z,100.00
2023-10-24T16:04:22.007Z,100.00
2023-10-24T16:06:52.408Z,100.00
2023-10-24T16:09:25.374Z,100.00
2023-10-24T16:11:56.061Z,100.00
2023-10-24T16:14:26.490Z,100.00
2023-10-24T16:16:56.883Z,100.00
2023-10-24T16:19:27.351Z,100.00
2023-10-24T16:21:57.659Z,100.00
2023-10-24T16:24:30.947Z,100.00
2023-10-24T16:27:02.267Z,100.00
2023-10-24T16:29:32.770Z,100.00
2023-10-24T16:32:03.129Z,100.00
2023-10-24T16:34:33.633Z,100.00
2023-10-24T16:37:04.711Z,100.00
2023-10-24T16:39:37.921Z,100.00
2023-10-24T16:42:09.139Z,100.00
2023-10-24T16:44:39.628Z,100.00
2023-10-24T16:47:10.378Z,100.00
2023-10-24T16:49:40.765Z,100.00
2023-10-24T16:52:11.116Z,100.00
2023-10-24T16:54:45.578Z,100.00
2023-10-24T16:57:15.917Z,100.00
2023-10-24T16:59:46.439Z,100.00
2023-10-24T17:02:16.926Z,100.00
2023-10-24T17:04:47.343Z,100.00
2023-10-24T17:07:17.707Z,100.00
2023-10-24T17:09:50.871Z,100.00
2023-10-24T17:12:21.311Z,100.00
2023-10-24T17:14:54.776Z,100.00
2023-10-24T17:17:25.235Z,100.00
2023-10-24T17:19:55.725Z,100.00
2023-10-24T17:22:31.389Z,100.00
2023-10-24T17:25:05.338Z,100.00
2023-10-24T17:27:35.873Z,100.00
2023-10-24T17:30:06.600Z,100.00
2023-10-24T17:32:38.066Z,100.00
2023-10-24T17:35:08.840Z,100.00
2023-10-24T17:37:39.499Z,100.00
2023-10-24T17:40:13.839Z,100.00
2023-10-24T17:42:45.605Z,100.00
2023-10-24T17:45:16.336Z,100.00
2023-10-24T17:47:46.725Z,100.00
2023-10-24T17:50:17.196Z,100.00
2023-10-24T17:52:47.697Z,100.00
2023-10-24T17:55:20.892Z,100.00
2023-10-24T17:57:53.649Z,100.00
2023-10-24T18:00:24.163Z,100.00
2023-10-24T18:02:54.564Z,100.00
2023-10-24T18:05:25.163Z,100.00
2023-10-24T18:07:57.332Z,100.00
2023-10-24T18:10:30.373Z,100.00
2023-10-24T18:13:01.053Z,100.00
2023-10-24T18:15:34.870Z,100.00
2023-10-24T18:18:09.490Z,100.00
2023-10-24T18:20:39.934Z,100.00
2023-10-24T18:23:10.478Z,100.00
2023-10-24T18:25:45.163Z,100.00
2023-10-24T18:28:15.495Z,100.00
2023-10-24T18:30:48.466Z,100.00
2023-10-24T18:33:19.021Z,100.00
2023-10-24T18:35:49.693Z,100.00
2023-10-24T18:38:20.179Z,100.00
2023-10-24T18:40:58.958Z,100.00
2023-10-24T18:43:30.638Z,100.00
2023-10-24T18:46:02.308Z,100.00
2023-10-24T18:48:35.680Z,100.00
2023-10-24T18:51:15.795Z,100.00
2023-10-24T18:53:49.768Z,100.00
2023-10-24T18:56:27.160Z,100.00
2023-10-24T18:58:57.888Z,100.00
2023-10-24T19:01:28.587Z,100.00
2023-10-24T19:03:59.079Z,100.00
2023-10-24T19:06:30.097Z,100.00
2023-10-24T19:09:00.604Z,100.00
2023-10-24T19:11:35.374Z,100.00
2023-10-24T19:14:06.773Z,100.00
2023-10-24T19:16:38.122Z,100.00
2023-10-24T19:19:09.377Z,100.00
2023-10-24T19:21:40.556Z,100.00
2023-10-24T19:24:12.344Z,100.00
2023-10-24T19:26:49.987Z,100.00
2023-10-24T19:29:21.046Z,100.00
2023-10-24T19:31:52.045Z,100.00
2023-10-24T19:34:23.485Z,100.00
2023-10-24T19:36:55.740Z,100.00
2023-10-24T19:39:26.617Z,100.00
2023-10-24T19:42:00.825Z,100.00
2023-10-24T19:44:33.882Z,100.00
2023-10-24T19:47:07.242Z,100.00
2023-10-24T19:49:38.741Z,100.00
2023-10-24T19:52:10.477Z,100.00
2023-10-24T19:54:41.506Z,100.00
2023-10-24T19:57:15.395Z,100.00
2023-10-24T19:59:46.423Z,100.00
2023-10-24T20:02:17.617Z,100.00
2023-10-24T20:04:51.031Z,100.00
2023-10-24T20:07:23.232Z,100.00
2023-10-24T20:11:41.881Z,100.00
2023-10-24T20:12:48.572Z,100.00
2023-10-24T20:15:20.735Z,100.00
2023-10-24T20:17:51.946Z,100.00
2023-10-24T20:20:23.182Z,100.00
2023-10-24T20:22:54.512Z,100.00
2023-10-24T20:25:25.854Z,100.00
2023-10-24T20:27:59.155Z,100.00
2023-10-24T20:30:30.144Z,100.00
2023-10-24T20:33:00.739Z,100.00
2023-10-24T20:35:31.357Z,100.00
2023-10-24T20:38:04.294Z,100.00
2023-10-24T20:40:34.801Z,100.00
2023-10-24T20:43:07.800Z,100.00
2023-10-24T20:45:38.359Z,100.00
2023-10-24T20:48:09.598Z,100.00
2023-10-24T20:50:42.828Z,100.00
2023-10-24T20:53:13.259Z,100.00
2023-10-24T20:55:43.596Z,100.00
2023-10-24T20:58:16.666Z,100.00
2023-10-24T21:00:47.044Z,100.00
2023-10-24T21:03:18.314Z,100.00
2023-10-24T21:05:48.808Z,100.00
2023-10-24T21:08:19.232Z,100.00
2023-10-24T21:10:49.562Z,100.00
2023-10-24T21:13:22.473Z,100.00
2023-10-24T21:15:59.171Z,100.00
2023-10-24T21:18:30.398Z,100.00
2023-10-24T21:21:00.770Z,100.00
2023-10-24T21:23:31.145Z,100.00
2023-10-24T21:26:01.932Z,100.00
2023-10-24T21:28:34.949Z,100.00
2023-10-24T21:31:07.148Z,100.00
2023-10-24T21:33:37.535Z,100.00
2023-10-24T21:36:08.947Z,100.00
2023-10-24T21:38:39.501Z,100.00
2023-10-24T21:41:09.862Z,100.00
2023-10-24T21:43:42.924Z,100.00
2023-10-24T21:46:14.908Z,100.00
2023-10-24T21:48:45.364Z,100.00
2023-10-24T21:51:15.827Z,100.00
2023-10-24T21:53:48.297Z,100.00
2023-10-24T21:56:20.350Z,100.00
2023-10-24T21:58:53.615Z,100.00
2023-10-24T22:01:23.911Z,100.00
2023-10-24T22:03:54.416Z,100.00
2023-10-24T22:06:24.898Z,100.00
2023-10-24T22:08:55.142Z,100.00
2023-10-24T22:11:25.432Z,100.00
2023-10-24T22:13:58.355Z,100.00
2023-10-24T22:16:28.793Z,100.00
2023-10-24T22:18:59.364Z,100.00
2023-10-24T22:21:29.776Z,100.00
2023-10-24T22:24:00.164Z,100.00
2023-10-24T22:26:30.675Z,100.00
2023-10-24T22:29:04.430Z,100.00
2023-10-24T22:31:34.784Z,100.00
2023-10-24T22:34:05.166Z,100.00
2023-10-24T22:36:35.537Z,100.00
2023-10-24T22:39:05.950Z,100.00
2023-10-24T22:41:36.392Z,100.00
2023-10-24T22:44:09.714Z,100.00
2023-10-24T22:46:40.124Z,100.00
2023-10-24T22:49:10.570Z,100.00
2023-10-24T22:51:41.020Z,100.00
2023-10-24T22:54:11.436Z,100.00
2023-10-24T22:56:41.862Z,100.00
2023-10-24T22:59:14.838Z,100.00
2023-10-24T23:01:45.299Z,100.00
2023-10-24T23:04:15.983Z,100.00
2023-10-24T23:06:46.580Z,100.00
2023-10-24T23:09:17.030Z,100.00
2023-10-24T23:11:47.283Z,100.00
2023-10-24T23:14:20.358Z,100.00
2023-10-24T23:16:50.789Z,100.00
2023-10-24T23:19:21.093Z,100.00
2023-10-24T23:21:51.555Z,100.00
2023-10-24T23:24:21.950Z,100.00
2023-10-24T23:26:55.178Z,100.00
2023-10-24T23:29:28.261Z,100.00
2023-10-24T23:31:58.571Z,100.00
2023-10-24T23:34:28.921Z,100.00
2023-10-24T23:36:59.232Z,100.00
2023-10-24T23:39:30.366Z,100.00
2023-10-24T23:42:00.849Z,100.00
2023-10-24T23:44:33.812Z,100.00
2023-10-24T23:47:04.110Z,100.00
2023-10-24T23:49:34.456Z,100.00
2023-10-24T23:52:04.787Z,100.00
2023-10-24T23:54:35.562Z,100.00
2023-10-24T23:57:06.047Z,100.00
2023-10-24T23:59:38.946Z,100.00
